createdAt,value
2022-12-20T00:01:57.187Z,6.23
2022-12-20T00:04:25.727Z,5.77
2022-12-20T00:06:54.050Z,6.60
2022-12-20T00:09:22.668Z,5.60
2022-12-20T00:11:51.022Z,6.27
2022-12-20T00:14:21.099Z,5.80
2022-12-20T00:16:49.409Z,5.90
2022-12-20T00:19:17.756Z,5.87
2022-12-20T00:21:46.154Z,5.70
2022-12-20T00:24:14.499Z,5.90
2022-12-20T00:26:42.790Z,6.10
2022-12-20T00:29:11.712Z,5.97
2022-12-20T00:31:41.476Z,5.60
2022-12-20T00:34:11.086Z,5.70
2022-12-20T00:36:41.334Z,5.77
2022-12-20T00:39:10.924Z,5.63
2022-12-20T00:41:39.444Z,5.47
2022-12-20T00:44:07.795Z,5.73
2022-12-20T00:46:36.711Z,5.40
2022-12-20T00:49:07.489Z,5.57
2022-12-20T00:51:35.760Z,5.60
2022-12-20T00:54:04.098Z,5.20
2022-12-20T00:56:32.588Z,5.10
2022-12-20T00:59:01.190Z,5.17
2022-12-20T01:01:33.288Z,5.20
2022-12-20T01:04:02.613Z,4.93
2022-12-20T01:06:33.497Z,5.00
2022-12-20T01:09:02.092Z,5.00
2022-12-20T01:11:32.859Z,4.90
2022-12-20T01:14:04.142Z,5.03
2022-12-20T01:16:36.064Z,5.73
2022-12-20T01:19:05.617Z,5.40
2022-12-20T01:21:35.616Z,4.90
2022-12-20T01:24:04.304Z,4.90
2022-12-20T01:26:32.704Z,4.90
2022-12-20T01:29:02.024Z,4.87
2022-12-20T01:31:32.333Z,5.10
2022-12-20T01:34:02.033Z,4.77
2022-12-20T01:36:34.327Z,4.90
2022-12-20T01:39:05.857Z,4.40
2022-12-20T01:41:35.562Z,5.30
2022-12-20T01:44:07.272Z,4.77
2022-12-20T01:46:37.564Z,4.90
2022-12-20T01:49:12.561Z,4.50
2022-12-20T01:51:45.896Z,4.77
2022-12-20T01:54:18.154Z,4.53
2022-12-20T01:56:51.511Z,4.60
2022-12-20T01:59:20.540Z,4.57
2022-12-20T02:01:49.114Z,4.87
2022-12-20T02:04:17.594Z,4.60
2022-12-20T02:06:47.325Z,4.67
2022-12-20T02:09:15.823Z,4.83
2022-12-20T02:12:02.374Z,4.63
2022-12-20T02:14:49.300Z,4.87
2022-12-20T02:17:31.910Z,4.60
2022-12-20T02:20:39.153Z,5.37
2022-12-20T02:23:50.224Z,4.70
2022-12-20T02:27:05.761Z,4.37
2022-12-20T02:29:38.614Z,4.93
2022-12-20T02:32:15.126Z,4.83
2022-12-20T02:34:44.715Z,5.03
2022-12-20T02:37:13.550Z,5.10
2022-12-20T02:39:45.828Z,4.87
2022-12-20T02:42:19.898Z,5.03
2022-12-20T02:45:11.932Z,5.63
2022-12-20T02:47:47.747Z,4.50
2022-12-20T02:50:20.479Z,5.07
2022-12-20T02:52:49.065Z,5.07
2022-12-20T02:55:18.266Z,4.70
2022-12-20T02:57:59.910Z,4.60
2022-12-20T03:00:34.308Z,5.07
2022-12-20T03:03:24.083Z,5.03
2022-12-20T03:05:55.081Z,4.93
2022-12-20T03:08:25.007Z,4.83
2022-12-20T03:10:55.965Z,4.80
2022-12-20T03:13:25.035Z,5.07
2022-12-20T03:15:53.471Z,5.37
2022-12-20T03:18:23.255Z,4.83
2022-12-20T03:20:51.587Z,5.27
2022-12-20T03:23:21.861Z,4.70
2022-12-20T03:25:50.200Z,5.40
2022-12-20T03:28:18.593Z,5.67
2022-12-20T03:30:47.059Z,5.50
2022-12-20T03:33:15.499Z,5.73
2022-12-20T03:35:45.451Z,5.20
2022-12-20T03:38:13.836Z,5.20
2022-12-20T03:40:42.187Z,5.80
2022-12-20T03:43:10.586Z,5.13
2022-12-20T03:45:39.116Z,5.60
2022-12-20T03:48:07.410Z,5.80
2022-12-20T03:50:36.772Z,5.07
2022-12-20T03:53:06.662Z,5.27
2022-12-20T03:55:35.736Z,5.43
2022-12-20T03:58:04.098Z,5.67
2022-12-20T04:00:32.530Z,5.60
2022-12-20T04:03:01.016Z,5.10
2022-12-20T04:05:38.101Z,5.57
2022-12-20T04:08:07.927Z,4.90
2022-12-20T04:10:56.426Z,5.77
2022-12-20T04:13:24.852Z,5.77
2022-12-20T04:15:59.810Z,5.97
2022-12-20T04:18:28.860Z,5.23
2022-12-20T04:20:57.228Z,5.67
2022-12-20T04:23:26.948Z,5.43
2022-12-20T04:25:55.250Z,6.23
2022-12-20T04:28:23.539Z,5.67
2022-12-20T04:30:51.884Z,5.87
2022-12-20T04:33:20.258Z,5.30
2022-12-20T04:35:48.623Z,6.33
2022-12-20T04:38:17.309Z,5.80
2022-12-20T04:40:47.023Z,5.80
2022-12-20T04:43:15.352Z,5.87
2022-12-20T04:45:44.234Z,6.37
2022-12-20T04:48:46.120Z,6.40
2022-12-20T04:51:01.279Z,6.20
2022-12-20T04:53:47.015Z,5.87
2022-12-20T04:56:19.292Z,6.70
2022-12-20T04:58:50.039Z,5.73
2022-12-20T05:01:19.645Z,6.03
2022-12-20T05:03:49.234Z,6.27
2022-12-20T05:06:18.323Z,6.80
2022-12-20T05:08:47.651Z,6.10
2022-12-20T05:11:17.790Z,5.90
2022-12-20T05:13:46.210Z,6.10
2022-12-20T05:16:15.008Z,6.20
2022-12-20T05:18:48.821Z,6.50
2022-12-20T05:21:35.557Z,5.83
2022-12-20T05:24:21.698Z,6.37
2022-12-20T05:26:51.433Z,6.73
2022-12-20T05:29:19.759Z,6.20
2022-12-20T05:31:48.286Z,6.40
2022-12-20T05:34:16.834Z,6.60
2022-12-20T05:36:45.179Z,6.57
2022-12-20T05:39:13.711Z,6.60
2022-12-20T05:41:42.062Z,6.47
2022-12-20T05:44:12.123Z,5.67
2022-12-20T05:46:40.506Z,5.77
2022-12-20T05:49:09.145Z,5.87
2022-12-20T05:51:37.496Z,5.50
2022-12-20T05:54:06.158Z,6.23
2022-12-20T05:56:34.577Z,6.83
2022-12-20T05:59:02.979Z,6.47
2022-12-20T06:01:33.519Z,5.43
2022-12-20T06:04:02.268Z,5.57
2022-12-20T06:06:30.709Z,5.23
2022-12-20T06:08:59.055Z,5.70
2022-12-20T06:11:30.243Z,5.40
2022-12-20T06:13:59.497Z,5.40
2022-12-20T06:16:28.750Z,4.97
2022-12-20T06:18:58.997Z,5.30
2022-12-20T06:21:28.590Z,4.90
2022-12-20T06:23:57.171Z,5.23
2022-12-20T06:26:25.845Z,5.40
2022-12-20T06:28:57.163Z,5.27
2022-12-20T06:31:25.861Z,5.27
2022-12-20T06:33:54.778Z,5.97
2022-12-20T06:36:24.714Z,5.50
2022-12-20T06:38:53.416Z,4.97
2022-12-20T06:41:22.038Z,5.17
2022-12-20T06:43:50.580Z,5.03
2022-12-20T06:46:19.260Z,5.37
2022-12-20T06:48:47.857Z,5.20
2022-12-20T06:51:17.475Z,5.20
2022-12-20T06:53:47.435Z,5.20
2022-12-20T06:56:15.994Z,5.43
2022-12-20T06:58:44.620Z,4.77
2022-12-20T07:01:13.149Z,5.63
2022-12-20T07:03:41.932Z,5.80
2022-12-20T07:06:10.597Z,6.03
2022-12-20T07:08:39.235Z,6.00
2022-12-20T07:11:10.550Z,6.00
2022-12-20T07:13:39.184Z,6.03
2022-12-20T07:16:08.817Z,5.83
2022-12-20T07:18:37.351Z,6.77
2022-12-20T07:21:07.718Z,6.00
2022-12-20T07:23:36.270Z,7.57
2022-12-20T07:26:05.997Z,6.60
2022-12-20T07:28:35.950Z,7.50
2022-12-20T07:31:06.058Z,7.23
2022-12-20T07:33:34.908Z,6.70
2022-12-20T07:36:04.379Z,7.20
2022-12-20T07:38:33.206Z,7.23
2022-12-20T07:41:01.803Z,7.50
2022-12-20T07:43:30.332Z,7.53
2022-12-20T07:46:00.502Z,8.30
2022-12-20T07:48:29.213Z,7.80
2022-12-20T07:51:02.024Z,8.63
2022-12-20T07:53:33.109Z,7.80
2022-12-20T07:56:03.206Z,7.63
2022-12-20T07:58:33.488Z,8.40
2022-12-20T08:01:04.843Z,8.57
2022-12-20T08:03:39.042Z,7.63
2022-12-20T08:06:10.133Z,7.97
2022-12-20T08:08:44.069Z,8.53
2022-12-20T08:11:13.681Z,8.77
2022-12-20T08:13:46.529Z,8.30
2022-12-20T08:16:17.497Z,9.37
2022-12-20T08:18:46.345Z,9.00
2022-12-20T08:21:15.110Z,8.27
2022-12-20T08:23:43.609Z,8.63
2022-12-20T08:26:12.693Z,9.10
2022-12-20T08:28:41.276Z,9.17
2022-12-20T08:31:12.820Z,8.80
2022-12-20T08:33:43.823Z,9.53
2022-12-20T08:36:14.661Z,8.47
2022-12-20T08:38:43.401Z,8.30
2022-12-20T08:41:14.481Z,7.67
2022-12-20T08:43:43.991Z,8.73
2022-12-20T08:46:14.034Z,7.63
2022-12-20T08:48:44.129Z,7.83
2022-12-20T08:51:13.566Z,7.40
2022-12-20T08:53:42.077Z,7.30
2022-12-20T08:56:13.317Z,6.80
2022-12-20T08:58:43.996Z,7.03
2022-12-20T09:01:15.298Z,6.73
2022-12-20T09:03:46.179Z,6.33
2022-12-20T09:06:19.072Z,7.10
2022-12-20T09:08:48.928Z,6.50
2022-12-20T09:11:21.058Z,6.60
2022-12-20T09:13:52.653Z,7.00
2022-12-20T09:16:23.972Z,7.10
2022-12-20T09:19:02.437Z,6.33
2022-12-20T09:21:34.338Z,6.20
2022-12-20T09:24:03.015Z,6.03
2022-12-20T09:26:32.448Z,5.80
2022-12-20T09:29:02.149Z,5.70
2022-12-20T09:31:31.091Z,5.93
2022-12-20T09:34:02.000Z,5.60
2022-12-20T09:36:32.007Z,5.97
2022-12-20T09:39:00.641Z,5.67
2022-12-20T09:41:37.296Z,5.20
2022-12-20T09:44:15.588Z,5.77
2022-12-20T09:46:45.477Z,5.67
2022-12-20T09:49:19.077Z,6.00
2022-12-20T09:52:08.845Z,5.20
2022-12-20T09:54:42.273Z,5.33
2022-12-20T09:57:24.464Z,4.93
2022-12-20T09:59:53.205Z,5.60
2022-12-20T10:05:19.901Z,5.57
2022-12-20T10:07:57.273Z,5.10
2022-12-20T10:10:44.071Z,4.80
2022-12-20T10:13:27.335Z,5.00
2022-12-20T10:16:05.286Z,5.17
2022-12-20T10:18:55.063Z,5.30
2022-12-20T10:21:38.199Z,5.20
2022-12-20T10:24:15.420Z,5.00
2022-12-20T10:26:44.573Z,4.90
2022-12-20T10:29:14.399Z,5.30
2022-12-20T10:31:43.323Z,4.97
2022-12-20T10:34:12.076Z,4.93
2022-12-20T10:36:42.122Z,5.23
2022-12-20T10:39:11.916Z,4.60
2022-12-20T10:41:52.118Z,4.97
2022-12-20T10:44:26.127Z,5.00
2022-12-20T10:46:57.080Z,5.00
2022-12-20T10:49:32.563Z,5.03
2022-12-20T10:52:14.251Z,5.20
2022-12-20T10:54:44.541Z,4.30
2022-12-20T10:57:21.997Z,5.20
2022-12-20T10:59:54.152Z,5.10
2022-12-20T11:02:38.913Z,5.07
2022-12-20T11:05:25.877Z,4.57
2022-12-20T11:10:47.677Z,5.00
2022-12-20T11:13:25.990Z,4.40
2022-12-20T11:16:01.534Z,5.03
2022-12-20T11:18:44.439Z,4.40
2022-12-20T11:21:28.007Z,5.70
2022-12-20T11:24:08.333Z,4.80
2022-12-20T11:27:09.299Z,4.90
2022-12-20T11:30:06.426Z,5.00
2022-12-20T11:32:56.691Z,4.80
2022-12-20T11:35:33.762Z,4.67
2022-12-20T11:38:14.804Z,5.27
2022-12-20T11:40:51.125Z,5.17
2022-12-20T11:44:22.656Z,4.63
2022-12-20T11:47:16.137Z,5.13
2022-12-20T11:50:11.355Z,4.80
2022-12-20T11:52:47.317Z,5.33
2022-12-20T11:55:22.768Z,5.53
2022-12-20T12:00:56.113Z,4.90
2022-12-20T12:03:32.146Z,5.10
2022-12-20T12:06:05.882Z,5.33
2022-12-20T12:08:44.754Z,5.07
2022-12-20T12:12:04.051Z,4.77
2022-12-20T12:14:23.296Z,5.10
2022-12-20T12:16:55.635Z,4.37
2022-12-20T12:19:26.429Z,4.70
2022-12-20T12:22:02.900Z,4.93
2022-12-20T12:24:39.221Z,5.33
2022-12-20T12:27:16.414Z,5.57
2022-12-20T12:29:46.438Z,5.13
2022-12-20T12:32:23.029Z,5.47
2022-12-20T12:35:20.466Z,5.77
2022-12-20T12:37:59.409Z,5.50
2022-12-20T12:40:53.156Z,5.97
2022-12-20T12:43:53.266Z,5.73
2022-12-20T12:46:28.886Z,5.80
2022-12-20T12:49:02.717Z,5.53
2022-12-20T12:51:35.760Z,5.53
2022-12-20T12:54:19.161Z,5.67
2022-12-20T12:56:49.112Z,5.53
2022-12-20T12:59:50.164Z,6.27
2022-12-20T13:02:53.547Z,5.60
2022-12-20T13:05:37.450Z,5.87
2022-12-20T13:08:17.166Z,5.80
2022-12-20T13:11:04.564Z,6.00
2022-12-20T13:13:33.690Z,6.17
2022-12-20T13:19:36.033Z,6.00
2022-12-20T13:22:23.083Z,5.90
2022-12-20T13:24:57.204Z,6.70
2022-12-20T13:27:37.078Z,6.80
2022-12-20T13:30:30.607Z,6.80
2022-12-20T13:33:24.819Z,7.60
2022-12-20T13:36:34.617Z,6.80
2022-12-20T13:39:21.749Z,7.33
2022-12-20T13:41:55.586Z,8.07
2022-12-20T13:44:42.519Z,7.93
2022-12-20T13:47:39.067Z,7.87
2022-12-20T13:50:38.830Z,8.37
2022-12-20T13:53:18.453Z,8.47
2022-12-20T13:55:49.080Z,8.20
2022-12-20T13:58:20.659Z,9.03
2022-12-20T14:00:51.002Z,9.20
2022-12-20T14:03:25.442Z,8.83
2022-12-20T14:06:00.201Z,9.30
2022-12-20T14:08:34.527Z,8.67
2022-12-20T14:11:11.772Z,8.50
2022-12-20T14:13:40.701Z,9.53
2022-12-20T14:16:14.541Z,10.00
2022-12-20T14:18:44.521Z,8.50
2022-12-20T14:21:13.513Z,9.50
2022-12-20T14:23:47.720Z,9.77
2022-12-20T14:26:19.870Z,9.53
2022-12-20T14:28:50.703Z,9.17
2022-12-20T14:31:28.634Z,9.70
2022-12-20T14:34:06.979Z,9.27
2022-12-20T14:36:36.228Z,9.50
2022-12-20T14:39:26.259Z,9.07
2022-12-20T14:41:59.407Z,9.73
2022-12-20T14:44:30.413Z,10.00
2022-12-20T14:47:01.574Z,10.53
2022-12-20T14:49:33.001Z,10.63
2022-12-20T14:52:15.855Z,11.57
2022-12-20T14:55:07.751Z,12.00
2022-12-20T14:57:45.732Z,10.97
2022-12-20T15:00:22.789Z,11.83
2022-12-20T15:03:03.333Z,11.97
2022-12-20T15:05:47.281Z,12.10
2022-12-20T15:08:19.483Z,11.97
2022-12-20T15:10:58.044Z,12.27
2022-12-20T15:13:34.179Z,12.60
2022-12-20T15:16:04.840Z,12.30
2022-12-20T15:18:34.418Z,12.73
2022-12-20T15:21:07.655Z,12.57
2022-12-20T15:23:37.268Z,12.67
2022-12-20T15:26:07.392Z,13.13
2022-12-20T15:28:36.047Z,14.30
2022-12-20T15:31:05.884Z,15.27
2022-12-20T15:33:36.576Z,14.10
2022-12-20T15:36:05.286Z,23.77
2022-12-20T15:38:55.257Z,21.73
2022-12-20T15:41:25.975Z,16.10
2022-12-20T15:43:58.112Z,17.37
2022-12-20T15:46:27.245Z,18.57
2022-12-20T15:48:56.219Z,15.03
2022-12-20T15:51:30.163Z,15.50
2022-12-20T15:53:59.135Z,15.63
2022-12-20T15:56:30.383Z,15.43
2022-12-20T15:58:59.008Z,16.07
2022-12-20T16:01:38.192Z,17.57
2022-12-20T16:04:14.958Z,16.63
2022-12-20T16:06:44.263Z,16.17
2022-12-20T16:09:12.852Z,17.50
2022-12-20T16:11:43.599Z,17.07
2022-12-20T16:14:16.399Z,18.23
2022-12-20T16:16:45.677Z,17.33
2022-12-20T16:19:14.354Z,17.43
2022-12-20T16:21:47.228Z,18.00
2022-12-20T16:24:18.428Z,17.60
2022-12-20T16:26:49.553Z,17.77
2022-12-20T16:29:18.278Z,17.80
2022-12-20T16:31:46.885Z,17.47
2022-12-20T16:34:18.055Z,17.37
2022-12-20T16:36:47.789Z,18.93
2022-12-20T16:39:16.274Z,18.23
2022-12-20T16:41:44.975Z,17.17
2022-12-20T16:44:18.167Z,18.07
2022-12-20T16:46:46.889Z,18.20
2022-12-20T16:49:20.363Z,17.60
2022-12-20T16:51:50.921Z,18.83
2022-12-20T16:54:22.365Z,18.53
2022-12-20T16:56:55.644Z,18.73
2022-12-20T16:59:26.300Z,19.73
2022-12-20T17:01:57.643Z,18.43
2022-12-20T17:04:27.436Z,19.40
2022-12-20T17:06:56.037Z,19.47
2022-12-20T17:12:16.661Z,19.40
2022-12-20T17:14:47.381Z,19.83
2022-12-20T17:17:16.175Z,20.13
2022-12-20T17:19:44.907Z,19.23
2022-12-20T17:25:06.102Z,21.27
2022-12-20T17:27:34.731Z,20.20
2022-12-20T17:30:05.487Z,20.00
2022-12-20T17:32:34.093Z,20.83
2022-12-20T17:35:02.683Z,19.90
2022-12-20T17:37:31.418Z,21.47
2022-12-20T17:40:00.044Z,21.80
2022-12-20T17:42:31.501Z,22.30
2022-12-20T17:45:00.446Z,21.27
2022-12-20T17:47:30.345Z,21.43
2022-12-20T17:49:59.931Z,21.20
2022-12-20T17:52:28.695Z,22.90
2022-12-20T17:54:57.264Z,22.37
2022-12-20T17:57:25.840Z,23.40
2022-12-20T17:59:54.279Z,21.73
2022-12-20T18:02:24.967Z,23.57
2022-12-20T18:04:55.038Z,24.00
2022-12-20T18:07:23.487Z,23.77
2022-12-20T18:09:52.991Z,23.73
2022-12-20T18:12:21.473Z,23.47
2022-12-20T18:14:50.721Z,23.73
2022-12-20T18:17:19.198Z,25.10
2022-12-20T18:19:47.573Z,24.50
2022-12-20T18:22:17.260Z,24.40
2022-12-20T18:24:45.631Z,25.40
2022-12-20T18:27:14.920Z,25.53
2022-12-20T18:29:43.378Z,25.10
2022-12-20T18:32:12.670Z,26.47
2022-12-20T18:34:41.127Z,25.57
2022-12-20T18:37:09.456Z,27.57
2022-12-20T18:39:39.170Z,26.67
2022-12-20T18:42:08.384Z,26.43
2022-12-20T18:44:36.893Z,26.13
2022-12-20T18:47:05.647Z,27.53
2022-12-20T18:49:34.459Z,27.93
2022-12-20T18:52:02.777Z,27.47
2022-12-20T18:54:31.379Z,27.53
2022-12-20T18:57:01.248Z,26.63
2022-12-20T18:59:29.732Z,29.53
2022-12-20T19:01:58.158Z,28.07
2022-12-20T19:04:26.741Z,27.57
2022-12-20T19:06:55.209Z,27.80
2022-12-20T19:09:24.016Z,26.47
2022-12-20T19:11:57.026Z,27.67
2022-12-20T19:14:27.651Z,28.33
2022-12-20T19:16:56.219Z,27.20
2022-12-20T19:19:24.911Z,27.63
2022-12-20T19:21:53.479Z,27.57
2022-12-20T19:24:21.904Z,26.57
2022-12-20T19:26:50.334Z,26.47
2022-12-20T19:29:18.732Z,27.20
2022-12-20T19:31:48.972Z,26.37
2022-12-20T19:34:17.417Z,28.23
2022-12-20T19:36:48.421Z,27.67
2022-12-20T19:39:20.034Z,27.47
2022-12-20T19:44:37.875Z,28.83
2022-12-20T19:47:07.817Z,28.03
2022-12-20T19:49:36.882Z,29.57
2022-12-20T19:52:06.137Z,26.90
2022-12-20T19:54:35.157Z,27.93
2022-12-20T19:57:03.555Z,22.07
2022-12-20T19:59:31.989Z,21.70
2022-12-20T20:02:00.539Z,20.90
2022-12-20T20:04:30.657Z,18.63
2022-12-20T20:06:59.092Z,18.07
2022-12-20T20:09:27.494Z,18.93
2022-12-20T20:11:55.976Z,20.00
2022-12-20T20:14:24.902Z,19.47
2022-12-20T20:16:53.402Z,17.50
2022-12-20T20:19:21.784Z,18.00
2022-12-20T20:21:51.665Z,17.73
2022-12-20T20:24:20.847Z,16.97
2022-12-20T20:26:49.849Z,18.50
2022-12-20T20:29:18.325Z,17.17
2022-12-20T20:31:46.966Z,17.90
2022-12-20T20:34:15.504Z,17.70
2022-12-20T20:36:43.891Z,19.17
2022-12-20T20:39:13.701Z,18.97
2022-12-20T20:41:42.908Z,19.13
2022-12-20T20:44:12.905Z,19.13
2022-12-20T20:46:41.395Z,18.67
2022-12-20T20:49:10.321Z,19.03
2022-12-20T20:51:38.689Z,19.13
2022-12-20T20:54:07.264Z,18.60
2022-12-20T20:56:37.169Z,18.87
2022-12-20T20:59:10.561Z,21.30
2022-12-20T21:01:43.903Z,21.67
2022-12-20T21:04:12.346Z,21.03
2022-12-20T21:06:42.247Z,21.63
2022-12-20T21:09:11.495Z,21.30
2022-12-20T21:11:41.593Z,23.00
2022-12-20T21:14:11.186Z,22.83
2022-12-20T21:16:42.268Z,24.03
2022-12-20T21:19:11.520Z,23.67
2022-12-20T21:21:40.139Z,23.70
2022-12-20T21:24:09.013Z,23.10
2022-12-20T21:26:37.980Z,24.23
2022-12-20T21:29:09.842Z,24.13
2022-12-20T21:31:38.536Z,24.50
2022-12-20T21:34:06.993Z,25.20
2022-12-20T21:36:35.921Z,26.13
2022-12-20T21:39:05.309Z,26.10
2022-12-20T21:41:33.720Z,26.17
2022-12-20T21:44:02.949Z,26.13
2022-12-20T21:46:33.371Z,27.70
2022-12-20T21:49:01.913Z,27.17
2022-12-20T21:51:31.468Z,28.67
2022-12-20T21:54:02.105Z,27.83
2022-12-20T21:56:33.182Z,28.10
2022-12-20T21:59:02.505Z,28.70
2022-12-20T22:01:33.427Z,29.93
2022-12-20T22:04:05.778Z,30.00
2022-12-20T22:06:35.076Z,30.30
2022-12-20T22:09:06.834Z,28.50
2022-12-20T22:11:37.120Z,27.47
2022-12-20T22:14:06.249Z,27.33
2022-12-20T22:16:36.763Z,27.47
2022-12-20T22:19:05.445Z,28.03
2022-12-20T22:21:36.847Z,26.30
2022-12-20T22:24:05.877Z,27.07
2022-12-20T22:26:35.846Z,28.77
2022-12-20T22:29:07.130Z,28.43
2022-12-20T22:31:37.743Z,28.87
2022-12-20T22:34:06.554Z,29.47
2022-12-20T22:36:34.908Z,30.07
2022-12-20T22:39:03.243Z,28.63
2022-12-20T22:41:34.990Z,28.30
2022-12-20T22:44:04.307Z,28.80
2022-12-20T22:46:33.255Z,29.60
2022-12-20T22:49:03.145Z,31.43
2022-12-20T22:51:33.580Z,31.80
2022-12-20T22:54:02.568Z,31.20
2022-12-20T22:56:30.873Z,29.87
2022-12-20T22:58:59.278Z,30.67
2022-12-20T23:01:27.925Z,30.87
2022-12-20T23:03:56.447Z,32.03
2022-12-20T23:06:26.295Z,29.17
2022-12-20T23:08:54.731Z,30.53
2022-12-20T23:11:43.260Z,30.63
2022-12-20T23:14:32.153Z,31.87
2022-12-20T23:17:01.140Z,30.67
2022-12-20T23:19:52.129Z,28.87
2022-12-20T23:22:39.345Z,29.97
2022-12-20T23:25:10.789Z,30.33
2022-12-20T23:27:39.931Z,30.07
2022-12-20T23:30:11.310Z,28.40
2022-12-20T23:32:39.911Z,27.33
2022-12-20T23:35:12.569Z,29.97
2022-12-20T23:37:43.380Z,27.27
2022-12-20T23:40:13.376Z,28.50
2022-12-20T23:42:41.717Z,27.77
2022-12-20T23:45:11.636Z,28.70
2022-12-20T23:47:40.110Z,29.33
2022-12-20T23:50:09.771Z,29.30
2022-12-20T23:52:38.832Z,28.50
2022-12-20T23:55:09.943Z,27.77
2022-12-20T23:57:38.410Z,26.57
